createdAt,value
2023-05-14T00:00:17.655Z,24.60
2023-05-14T00:03:06.203Z,13.50
2023-05-14T00:05:34.570Z,13.80
2023-05-14T00:08:02.755Z,14.10
2023-05-14T00:10:30.814Z,12.70
2023-05-14T00:12:58.890Z,16.30
2023-05-14T00:15:26.869Z,18.80
2023-05-14T00:17:54.941Z,15.40
2023-05-14T00:20:23.469Z,20.20
2023-05-14T00:22:51.705Z,18.30
2023-05-14T00:25:19.553Z,30.70
2023-05-14T00:27:47.458Z,24.20
2023-05-14T00:30:15.706Z,20.00
2023-05-14T00:32:43.795Z,35.30
2023-05-14T00:35:12.473Z,32.90
2023-05-14T00:37:40.376Z,23.00
2023-05-14T00:40:11.677Z,25.20
2023-05-14T00:42:40.943Z,18.10
2023-05-14T00:45:09.480Z,16.00
2023-05-14T00:47:39.391Z,14.50
2023-05-14T00:50:08.791Z,15.00
2023-05-14T00:52:38.501Z,14.50
2023-05-14T00:55:07.980Z,14.60
2023-05-14T00:57:37.202Z,13.50
2023-05-14T01:00:06.592Z,16.40
2023-05-14T01:02:34.646Z,18.20
2023-05-14T01:05:03.858Z,21.60
2023-05-14T01:08:00.912Z,17.40
2023-05-14T01:10:51.206Z,16.40
2023-05-14T01:14:02.178Z,20.60
2023-05-14T01:16:33.512Z,17.70
2023-05-14T01:19:02.771Z,12.60
2023-05-14T01:21:36.494Z,14.60
2023-05-14T01:24:05.227Z,20.20
2023-05-14T01:26:34.018Z,16.10
2023-05-14T01:29:18.877Z,16.30
2023-05-14T01:31:50.310Z,20.60
2023-05-14T01:34:22.859Z,20.60
2023-05-14T01:36:52.325Z,22.10
2023-05-14T01:39:20.903Z,17.40
2023-05-14T01:41:50.023Z,32.60
2023-05-14T01:44:18.765Z,15.20
2023-05-14T01:46:46.854Z,23.00
2023-05-14T01:49:16.255Z,16.80
2023-05-14T01:51:44.321Z,13.60
2023-05-14T01:54:12.381Z,14.60
2023-05-14T01:56:40.352Z,13.00
2023-05-14T01:59:08.305Z,13.10
2023-05-14T02:01:37.267Z,11.60
2023-05-14T02:04:05.351Z,9.00
2023-05-14T02:06:33.427Z,16.20
2023-05-14T02:09:01.530Z,24.40
2023-05-14T02:11:29.600Z,26.10
2023-05-14T02:13:57.985Z,24.30
2023-05-14T02:16:26.197Z,17.80
2023-05-14T02:18:54.484Z,19.10
2023-05-14T02:21:22.556Z,25.50
2023-05-14T02:23:51.264Z,26.00
2023-05-14T02:26:19.468Z,25.60
2023-05-14T02:28:47.543Z,17.20
2023-05-14T02:31:15.633Z,11.30
2023-05-14T02:33:43.713Z,12.20
2023-05-14T02:36:11.863Z,13.90
2023-05-14T02:38:40.117Z,27.60
2023-05-14T02:41:08.560Z,23.10
2023-05-14T02:43:36.584Z,28.30
2023-05-14T02:46:04.973Z,27.80
2023-05-14T02:48:32.864Z,18.80
2023-05-14T02:51:00.981Z,18.60
2023-05-14T02:53:29.184Z,13.90
2023-05-14T02:55:57.257Z,11.10
2023-05-14T02:58:27.967Z,14.20
2023-05-14T03:00:57.140Z,17.00
2023-05-14T03:03:25.864Z,15.50
2023-05-14T03:05:54.218Z,12.00
2023-05-14T03:08:22.319Z,9.80
2023-05-14T03:10:50.312Z,9.30
2023-05-14T03:13:20.872Z,14.40
2023-05-14T03:15:49.291Z,8.50
2023-05-14T03:18:17.476Z,12.70
2023-05-14T03:20:47.695Z,10.70
2023-05-14T03:23:15.774Z,10.10
2023-05-14T03:25:43.900Z,13.20
2023-05-14T03:28:11.917Z,17.90
2023-05-14T03:30:40.040Z,18.60
2023-05-14T03:33:08.113Z,21.70
2023-05-14T03:35:36.231Z,20.10
2023-05-14T03:38:04.161Z,17.90
2023-05-14T03:40:32.275Z,13.40
2023-05-14T03:43:00.342Z,19.30
2023-05-14T03:45:30.558Z,14.70
2023-05-14T03:48:00.054Z,20.90
2023-05-14T03:50:28.456Z,19.70
2023-05-14T03:52:56.415Z,16.00
2023-05-14T03:55:24.519Z,9.60
2023-05-14T03:57:52.611Z,12.50
2023-05-14T04:00:21.476Z,16.20
2023-05-14T04:02:49.805Z,12.70
2023-05-14T04:05:18.147Z,14.40
2023-05-14T04:07:47.111Z,16.40
2023-05-14T04:10:15.867Z,11.10
2023-05-14T04:12:43.838Z,8.50
2023-05-14T04:15:12.138Z,11.60
2023-05-14T04:17:40.300Z,15.80
2023-05-14T04:20:09.199Z,11.10
2023-05-14T04:22:37.257Z,12.30
2023-05-14T04:25:06.190Z,9.40
2023-05-14T04:27:34.751Z,14.10
2023-05-14T04:30:03.140Z,10.00
2023-05-14T04:32:31.482Z,10.00
2023-05-14T04:34:59.673Z,10.20
2023-05-14T04:37:27.584Z,9.80
2023-05-14T04:39:55.610Z,12.10
2023-05-14T04:42:23.817Z,9.00
2023-05-14T04:44:52.329Z,10.10
2023-05-14T04:47:21.212Z,9.90
2023-05-14T04:49:49.431Z,10.40
2023-05-14T04:52:17.454Z,10.90
2023-05-14T04:54:45.483Z,10.20
2023-05-14T04:57:13.548Z,10.20
2023-05-14T04:59:41.723Z,9.80
2023-05-14T05:02:09.572Z,12.10
2023-05-14T05:04:37.552Z,11.50
2023-05-14T05:07:06.352Z,10.70
2023-05-14T05:09:34.428Z,14.60
2023-05-14T05:12:02.388Z,8.90
2023-05-14T05:14:30.571Z,11.30
2023-05-14T05:16:58.639Z,8.10
2023-05-14T05:19:35.913Z,9.40
2023-05-14T05:22:07.935Z,9.50
2023-05-14T05:24:35.968Z,8.20
2023-05-14T05:27:05.527Z,8.30
2023-05-14T05:29:35.705Z,9.20
2023-05-14T05:32:04.074Z,10.00
2023-05-14T05:34:32.144Z,7.50
2023-05-14T05:37:00.101Z,8.50
2023-05-14T05:39:28.138Z,11.50
2023-05-14T05:41:56.146Z,8.50
2023-05-14T05:44:24.428Z,10.50
2023-05-14T05:46:52.560Z,8.40
2023-05-14T05:49:20.938Z,7.70
2023-05-14T05:51:49.363Z,7.60
2023-05-14T05:54:17.285Z,7.00
2023-05-14T05:56:45.233Z,6.90
2023-05-14T05:59:13.267Z,9.80
2023-05-14T06:01:43.862Z,6.80
2023-05-14T06:04:12.079Z,8.20
2023-05-14T06:06:39.997Z,8.10
2023-05-14T06:09:09.140Z,9.00
2023-05-14T06:11:37.200Z,6.40
2023-05-14T06:14:05.585Z,7.70
2023-05-14T06:16:33.744Z,5.60
2023-05-14T06:19:02.390Z,5.20
2023-05-14T06:21:30.613Z,5.40
2023-05-14T06:23:58.576Z,5.20
2023-05-14T06:26:26.657Z,5.70
2023-05-14T06:28:54.832Z,7.10
2023-05-14T06:31:22.916Z,5.90
2023-05-14T06:33:50.869Z,6.20
2023-05-14T06:36:18.817Z,9.90
2023-05-14T06:38:46.911Z,9.90
2023-05-14T06:41:14.887Z,6.20
2023-05-14T06:43:42.948Z,6.60
2023-05-14T06:46:11.228Z,5.50
2023-05-14T06:48:39.378Z,4.90
2023-05-14T06:51:07.473Z,6.70
2023-05-14T06:53:35.544Z,10.50
2023-05-14T06:56:03.721Z,7.40
2023-05-14T06:58:31.690Z,7.00
2023-05-14T07:01:00.338Z,7.80
2023-05-14T07:03:29.365Z,5.80
2023-05-14T07:05:57.283Z,6.80
2023-05-14T07:08:25.403Z,7.30
2023-05-14T07:10:53.380Z,8.30
2023-05-14T07:13:21.471Z,2.80
2023-05-14T07:15:49.414Z,4.00
2023-05-14T07:18:17.538Z,6.20
2023-05-14T07:20:45.408Z,3.10
2023-05-14T07:23:13.354Z,4.50
2023-05-14T07:25:41.283Z,8.30
2023-05-14T07:28:09.465Z,7.40
2023-05-14T07:30:37.547Z,5.50
2023-05-14T07:33:05.640Z,3.60
2023-05-14T07:35:33.713Z,4.30
2023-05-14T07:38:01.997Z,3.90
2023-05-14T07:40:30.039Z,6.00
2023-05-14T07:42:58.010Z,3.00
2023-05-14T07:45:25.950Z,5.30
2023-05-14T07:47:54.322Z,4.80
2023-05-14T07:50:23.264Z,7.40
2023-05-14T07:52:51.409Z,6.20
2023-05-14T07:55:19.477Z,7.00
2023-05-14T07:57:47.560Z,4.90
2023-05-14T08:00:16.959Z,5.60
2023-05-14T08:02:45.094Z,4.00
2023-05-14T08:05:13.714Z,3.40
2023-05-14T08:07:41.799Z,13.00
2023-05-14T08:10:10.485Z,2.90
2023-05-14T08:12:39.154Z,7.10
2023-05-14T08:15:08.260Z,3.20
2023-05-14T08:17:36.455Z,3.50
2023-05-14T08:20:06.767Z,3.70
2023-05-14T08:22:34.823Z,6.40
2023-05-14T08:25:04.043Z,4.30
2023-05-14T08:27:32.711Z,2.90
2023-05-14T08:30:00.996Z,5.00
2023-05-14T08:32:29.673Z,3.30
2023-05-14T08:34:57.756Z,4.60
2023-05-14T08:37:25.857Z,8.00
2023-05-14T08:39:53.890Z,4.40
2023-05-14T08:42:25.855Z,6.40
2023-05-14T08:45:05.814Z,4.20
2023-05-14T08:47:34.412Z,2.80
2023-05-14T08:50:08.330Z,3.60
2023-05-14T08:52:36.487Z,4.10
2023-05-14T08:55:06.594Z,4.60
2023-05-14T08:57:36.012Z,3.10
2023-05-14T09:00:08.479Z,5.00
2023-05-14T09:02:37.009Z,6.10
2023-05-14T09:05:07.404Z,5.20
2023-05-14T09:07:35.956Z,3.90
2023-05-14T09:10:04.733Z,4.30
2023-05-14T09:12:32.584Z,6.30
2023-05-14T09:15:00.583Z,3.20
2023-05-14T09:17:28.812Z,4.20
2023-05-14T09:19:56.971Z,4.10
2023-05-14T09:22:24.931Z,5.50
2023-05-14T09:25:06.727Z,8.80
2023-05-14T09:27:36.288Z,4.90
2023-05-14T09:30:10.710Z,9.50
2023-05-14T09:32:41.348Z,4.80
2023-05-14T09:35:21.599Z,6.70
2023-05-14T09:37:54.703Z,6.50
2023-05-14T09:40:24.589Z,16.00
2023-05-14T09:42:53.289Z,10.30
2023-05-14T09:45:21.366Z,9.10
2023-05-14T09:47:49.824Z,10.50
2023-05-14T09:50:18.020Z,7.50
2023-05-14T09:52:46.101Z,6.80
2023-05-14T09:55:15.041Z,10.10
2023-05-14T09:57:43.159Z,23.70
2023-05-14T10:00:12.826Z,19.80
2023-05-14T10:02:43.130Z,8.30
2023-05-14T10:05:13.431Z,6.80
2023-05-14T10:07:47.324Z,7.50
2023-05-14T10:10:28.865Z,33.60
2023-05-14T10:13:05.113Z,9.40
2023-05-14T10:18:20.578Z,9.00
2023-05-14T10:20:58.635Z,7.10
2023-05-14T10:23:27.467Z,6.20
2023-05-14T10:25:55.577Z,7.80
2023-05-14T10:28:24.012Z,4.10
2023-05-14T10:30:52.035Z,5.20
2023-05-14T10:33:21.169Z,5.10
2023-05-14T10:35:55.337Z,3.50
2023-05-14T10:38:27.684Z,4.20
2023-05-14T10:41:07.654Z,6.30
2023-05-14T10:43:40.909Z,4.90
2023-05-14T10:46:11.269Z,3.30
2023-05-14T10:48:42.060Z,3.00
2023-05-14T10:51:11.391Z,4.60
2023-05-14T10:53:42.847Z,3.50
2023-05-14T10:56:13.150Z,6.90
2023-05-14T10:58:46.042Z,4.40
2023-05-14T11:01:14.437Z,6.20
2023-05-14T11:03:45.498Z,6.10
2023-05-14T11:06:16.448Z,3.90
2023-05-14T11:08:46.683Z,5.40
2023-05-14T11:11:15.137Z,3.80
2023-05-14T11:13:44.806Z,3.80
2023-05-14T11:16:22.942Z,4.30
2023-05-14T11:19:03.615Z,4.40
2023-05-14T11:21:34.790Z,5.60
2023-05-14T11:24:05.455Z,4.30
2023-05-14T11:26:34.244Z,5.90
2023-05-14T11:29:02.793Z,3.80
2023-05-14T11:31:30.897Z,5.00
2023-05-14T11:33:59.390Z,3.10
2023-05-14T11:36:27.354Z,4.50
2023-05-14T11:38:55.527Z,6.00
2023-05-14T11:41:23.928Z,6.70
2023-05-14T11:43:52.059Z,6.70
2023-05-14T11:46:20.180Z,5.30
2023-05-14T11:48:48.454Z,4.50
2023-05-14T11:51:16.405Z,6.10
2023-05-14T11:53:45.795Z,5.00
2023-05-14T11:56:14.083Z,6.50
2023-05-14T11:58:48.191Z,8.80
2023-05-14T12:01:16.201Z,5.70
2023-05-14T12:03:44.411Z,4.30
2023-05-14T12:06:12.600Z,3.50
2023-05-14T12:08:40.672Z,3.70
2023-05-14T12:11:09.357Z,5.30
2023-05-14T12:13:37.532Z,5.00
2023-05-14T12:16:06.222Z,4.00
2023-05-14T12:18:34.511Z,3.40
2023-05-14T12:21:04.097Z,7.30
2023-05-14T12:23:33.131Z,5.20
2023-05-14T12:26:08.810Z,7.60
2023-05-14T12:28:42.471Z,4.20
2023-05-14T12:31:10.647Z,8.10
2023-05-14T12:33:38.799Z,5.60
2023-05-14T12:38:37.977Z,5.90
2023-05-14T12:41:06.291Z,6.70
2023-05-14T12:43:34.199Z,6.00
2023-05-14T12:46:02.229Z,6.70
2023-05-14T12:48:30.127Z,6.50
2023-05-14T12:50:58.179Z,8.70
2023-05-14T12:53:26.443Z,5.80
2023-05-14T12:55:55.106Z,4.30
2023-05-14T12:58:23.033Z,6.90
2023-05-14T13:00:51.116Z,5.60
2023-05-14T13:03:19.416Z,4.00
2023-05-14T13:05:47.362Z,6.40
2023-05-14T13:08:17.918Z,11.70
2023-05-14T13:10:46.047Z,7.20
2023-05-14T13:13:16.236Z,6.70
2023-05-14T13:15:46.789Z,8.60
2023-05-14T13:18:15.717Z,6.10
2023-05-14T13:20:43.684Z,7.80
2023-05-14T13:23:11.806Z,6.40
2023-05-14T13:25:39.979Z,6.30
2023-05-14T13:28:08.968Z,4.30
2023-05-14T13:30:37.056Z,4.70
2023-05-14T13:33:05.751Z,4.60
2023-05-14T13:35:34.848Z,5.50
2023-05-14T13:38:03.114Z,5.00
2023-05-14T13:40:31.165Z,4.80
2023-05-14T13:42:59.196Z,6.00
2023-05-14T13:45:27.151Z,5.40
2023-05-14T13:47:56.797Z,4.30
2023-05-14T13:50:24.988Z,5.30
2023-05-14T13:52:52.898Z,5.50
2023-05-14T13:55:20.832Z,5.80
2023-05-14T13:57:49.161Z,5.50
2023-05-14T14:00:17.675Z,4.70
2023-05-14T14:02:45.802Z,4.70
2023-05-14T14:05:13.860Z,6.00
2023-05-14T14:07:42.111Z,7.70
2023-05-14T14:10:10.699Z,4.60
2023-05-14T14:12:38.762Z,6.70
2023-05-14T14:15:07.708Z,5.50
2023-05-14T14:17:35.712Z,6.00
2023-05-14T14:20:06.030Z,8.90
2023-05-14T14:22:34.342Z,5.50
2023-05-14T14:25:02.812Z,6.10
2023-05-14T14:27:36.073Z,6.90
2023-05-14T14:30:09.932Z,4.50
2023-05-14T14:32:38.045Z,5.60
2023-05-14T14:35:06.768Z,7.90
2023-05-14T14:37:34.737Z,10.10
2023-05-14T14:40:03.142Z,6.00
2023-05-14T14:42:31.189Z,10.80
2023-05-14T14:44:59.258Z,6.10
2023-05-14T14:47:27.301Z,3.00
2023-05-14T14:49:55.717Z,4.30
2023-05-14T14:52:25.117Z,3.90
2023-05-14T14:54:54.134Z,4.70
2023-05-14T14:57:22.337Z,7.70
2023-05-14T14:59:50.530Z,3.20
2023-05-14T15:02:18.646Z,5.60
2023-05-14T15:04:46.834Z,3.90
2023-05-14T15:07:17.441Z,6.50
2023-05-14T15:09:45.412Z,4.40
2023-05-14T15:12:14.296Z,4.50
2023-05-14T15:14:42.350Z,7.40
2023-05-14T15:17:10.678Z,6.00
2023-05-14T15:19:38.815Z,4.50
2023-05-14T15:22:07.305Z,6.30
2023-05-14T15:24:35.342Z,6.20
2023-05-14T15:27:03.548Z,9.10
2023-05-14T15:29:31.935Z,4.60
2023-05-14T15:32:00.114Z,6.90
2023-05-14T15:34:28.272Z,4.30
2023-05-14T15:36:56.335Z,5.20
2023-05-14T15:39:24.458Z,7.40
2023-05-14T15:41:52.587Z,5.10
2023-05-14T15:44:21.192Z,5.90
2023-05-14T15:46:49.308Z,5.80
2023-05-14T15:49:17.417Z,5.10
2023-05-14T15:51:45.500Z,6.70
2023-05-14T15:54:13.663Z,5.50
2023-05-14T15:56:41.558Z,11.30
2023-05-14T15:59:09.599Z,4.90
2023-05-14T16:01:37.638Z,4.50
2023-05-14T16:04:06.288Z,5.20
2023-05-14T16:06:34.841Z,4.70
2023-05-14T16:09:03.834Z,8.50
2023-05-14T16:11:31.763Z,4.80
2023-05-14T16:13:59.874Z,7.50
2023-05-14T16:16:27.795Z,4.40
2023-05-14T16:18:55.969Z,5.00
2023-05-14T16:21:23.892Z,6.50
2023-05-14T16:23:52.075Z,4.60
2023-05-14T16:26:20.122Z,5.20
2023-05-14T16:28:48.201Z,7.60
2023-05-14T16:31:16.430Z,4.20
2023-05-14T16:33:44.565Z,6.10
2023-05-14T16:36:12.726Z,8.30
2023-05-14T16:38:52.344Z,5.90
2023-05-14T16:41:28.837Z,5.40
2023-05-14T16:43:56.891Z,6.00
2023-05-14T16:46:25.092Z,4.00
2023-05-14T16:48:53.241Z,6.10
2023-05-14T16:51:21.322Z,4.60
2023-05-14T16:53:49.822Z,5.90
2023-05-14T16:56:17.746Z,6.60
2023-05-14T16:58:45.831Z,6.10
2023-05-14T17:01:13.848Z,6.60
2023-05-14T17:03:41.978Z,8.00
2023-05-14T17:06:10.233Z,5.30
2023-05-14T17:08:38.267Z,7.80
2023-05-14T17:11:06.705Z,7.90
2023-05-14T17:13:34.154Z,5.10
2023-05-14T17:16:13.331Z,5.40
2023-05-14T17:18:40.504Z,5.60
2023-05-14T17:21:08.966Z,7.20
2023-05-14T17:23:37.066Z,7.80
2023-05-14T17:26:05.023Z,6.10
2023-05-14T17:28:33.607Z,7.70
2023-05-14T17:31:02.367Z,6.30
2023-05-14T17:33:30.523Z,7.30
2023-05-14T17:35:58.982Z,7.70
2023-05-14T17:38:27.006Z,6.20
2023-05-14T17:40:55.117Z,5.10
2023-05-14T17:43:23.087Z,4.70
2023-05-14T17:45:54.312Z,9.40
2023-05-14T17:48:24.137Z,7.10
2023-05-14T17:50:53.178Z,8.40
2023-05-14T17:53:21.573Z,6.60
2023-05-14T17:55:50.230Z,8.50
2023-05-14T17:58:18.301Z,8.00
2023-05-14T18:00:46.406Z,6.40
2023-05-14T18:03:15.238Z,4.80
2023-05-14T18:05:43.543Z,6.50
2023-05-14T18:08:12.084Z,12.00
2023-05-14T18:10:40.299Z,10.50
2023-05-14T18:13:08.284Z,6.40
2023-05-14T18:15:37.075Z,7.10
2023-05-14T18:18:05.806Z,6.10
2023-05-14T18:20:35.585Z,4.20
2023-05-14T18:23:03.839Z,8.00
2023-05-14T18:25:32.040Z,5.00
2023-05-14T18:28:00.181Z,8.40
2023-05-14T18:30:28.260Z,8.40
2023-05-14T18:32:56.459Z,7.10
2023-05-14T18:35:24.894Z,10.90
2023-05-14T18:37:53.795Z,7.50
2023-05-14T18:40:21.877Z,5.30
2023-05-14T18:42:49.953Z,7.40
2023-05-14T18:45:18.023Z,9.40
2023-05-14T18:47:46.167Z,5.70
2023-05-14T18:50:14.676Z,5.60
2023-05-14T18:52:42.839Z,4.60
2023-05-14T18:55:10.939Z,5.20
2023-05-14T18:57:38.942Z,9.70
2023-05-14T19:00:08.086Z,5.00
2023-05-14T19:02:36.252Z,5.80
2023-05-14T19:05:05.432Z,7.30
2023-05-14T19:07:33.838Z,7.50
2023-05-14T19:10:01.910Z,5.60
2023-05-14T19:12:30.079Z,5.10
2023-05-14T19:14:58.146Z,9.60
2023-05-14T19:17:26.567Z,6.60
2023-05-14T19:19:55.011Z,5.20
2023-05-14T19:22:23.288Z,7.80
2023-05-14T19:24:51.591Z,8.50
2023-05-14T19:27:20.865Z,8.00
2023-05-14T19:29:48.935Z,6.00
2023-05-14T19:32:16.902Z,7.70
2023-05-14T19:34:44.972Z,4.70
2023-05-14T19:37:13.027Z,5.40
2023-05-14T19:39:40.991Z,6.80
2023-05-14T19:42:09.086Z,5.00
2023-05-14T19:44:37.163Z,7.30
2023-05-14T19:47:05.860Z,4.60
2023-05-14T19:49:33.877Z,5.40
2023-05-14T19:52:01.967Z,6.40
2023-05-14T19:54:29.848Z,7.70
2023-05-14T19:56:57.859Z,5.50
2023-05-14T19:59:26.000Z,5.70
2023-05-14T20:01:54.918Z,6.50
2023-05-14T20:04:23.395Z,5.90
2023-05-14T20:06:51.526Z,7.60
2023-05-14T20:09:20.245Z,8.00
2023-05-14T20:11:48.403Z,5.80
2023-05-14T20:14:16.492Z,9.50
2023-05-14T20:16:44.656Z,9.80
2023-05-14T20:19:13.868Z,8.30
2023-05-14T20:21:42.228Z,6.10
2023-05-14T20:24:10.075Z,6.80
2023-05-14T20:26:38.024Z,5.60
2023-05-14T20:29:06.026Z,5.80
2023-05-14T20:31:34.212Z,5.10
2023-05-14T20:34:02.826Z,7.20
2023-05-14T20:36:31.058Z,14.50
2023-05-14T20:39:00.669Z,11.90
2023-05-14T20:41:28.634Z,7.20
2023-05-14T20:43:56.710Z,6.00
2023-05-14T20:46:24.708Z,10.00
2023-05-14T20:48:55.513Z,8.70
2023-05-14T20:51:23.588Z,5.40
2023-05-14T20:53:51.702Z,8.40
2023-05-14T20:56:20.033Z,7.30
2023-05-14T20:58:48.115Z,9.80
2023-05-14T21:01:16.186Z,5.20
2023-05-14T21:03:44.662Z,5.70
2023-05-14T21:06:12.938Z,6.70
2023-05-14T21:08:40.890Z,7.60
2023-05-14T21:11:08.875Z,10.30
2023-05-14T21:13:36.854Z,6.60
2023-05-14T21:16:05.603Z,11.40
2023-05-14T21:18:33.724Z,7.60
2023-05-14T21:21:01.882Z,5.50
2023-05-14T21:23:29.825Z,9.40
2023-05-14T21:25:58.129Z,8.90
2023-05-14T21:28:26.215Z,7.70
2023-05-14T21:30:54.166Z,11.50
2023-05-14T21:33:23.815Z,5.00
2023-05-14T21:35:52.055Z,5.80
2023-05-14T21:38:20.752Z,9.00
2023-05-14T21:40:48.823Z,5.20
2023-05-14T21:43:16.869Z,7.90
2023-05-14T21:45:47.320Z,7.20
2023-05-14T21:48:15.670Z,7.50
2023-05-14T21:50:43.776Z,5.90
2023-05-14T21:53:11.938Z,5.30
2023-05-14T21:55:40.319Z,7.00
2023-05-14T21:58:08.587Z,6.70
2023-05-14T22:00:36.553Z,4.70
2023-05-14T22:03:04.678Z,5.70
2023-05-14T22:05:33.106Z,6.10
2023-05-14T22:08:01.284Z,5.80
2023-05-14T22:10:30.686Z,5.50
2023-05-14T22:12:58.653Z,3.90
2023-05-14T22:15:26.907Z,4.20
2023-05-14T22:17:55.168Z,7.20
2023-05-14T22:20:23.276Z,6.30
2023-05-14T22:22:51.763Z,6.60
2023-05-14T22:25:19.790Z,4.80
2023-05-14T22:27:47.691Z,6.70
2023-05-14T22:30:15.793Z,5.30
2023-05-14T22:32:44.081Z,6.20
2023-05-14T22:35:12.936Z,10.70
2023-05-14T22:37:41.215Z,6.60
2023-05-14T22:40:10.213Z,5.00
2023-05-14T22:42:38.389Z,5.10
2023-05-14T22:45:07.993Z,6.60
2023-05-14T22:47:36.067Z,7.60
2023-05-14T22:50:04.544Z,7.60
2023-05-14T22:52:32.725Z,7.30
2023-05-14T22:55:00.780Z,8.40
2023-05-14T22:57:28.862Z,4.60
2023-05-14T22:59:56.857Z,4.40
2023-05-14T23:02:24.794Z,4.80
2023-05-14T23:04:53.117Z,6.70
2023-05-14T23:07:22.166Z,9.30
2023-05-14T23:09:50.107Z,7.70
2023-05-14T23:12:18.691Z,5.60
2023-05-14T23:14:46.698Z,6.90
2023-05-14T23:17:14.813Z,6.30
2023-05-14T23:19:43.054Z,5.00
2023-05-14T23:22:11.116Z,6.80
2023-05-14T23:24:39.059Z,4.70
2023-05-14T23:27:07.534Z,7.20
2023-05-14T23:29:35.755Z,6.40
2023-05-14T23:32:03.923Z,3.00
2023-05-14T23:34:33.120Z,5.20
2023-05-14T23:37:01.169Z,7.60
2023-05-14T23:39:30.687Z,9.50
2023-05-14T23:41:58.616Z,4.50
2023-05-14T23:44:26.667Z,6.80
2023-05-14T23:46:54.897Z,5.30
2023-05-14T23:49:22.812Z,5.60
2023-05-14T23:51:50.831Z,4.60
2023-05-14T23:54:18.821Z,5.20
2023-05-14T23:56:47.192Z,4.70
2023-05-14T23:59:16.179Z,7.30
